OIKKOIZC

Guest
Details From OIKK - Kerman
To OIZC - Chah Bahar
Flight Number -
Tags Generated
Created
Modified
Stats Distance 346 nm / 640 km
Max Altitude 0 ft / 0 m
Waypoints 3
Social Downloads 0
Likes 0
Share VATSIM

Download

Looking for another format? Having issues loading an existing format? Contact us
Advertisement - Login to hide

Notes

Generated

Route

OIKK CBH OIZC

ID Type Via Altitude Latitude Longitude Leg Dist Tot Dist Heading (true) Name
O OIKK APT - 0 ft / 0 m 30.25735˚ 56.95072˚ - 0 nm - -
CBH VOR - 0 ft / 0 m 25.44539˚ 60.42131˚ 342 nm 342 nm 147° / 148° CHAH BAHAR VORTAC
O OIZC APT - 0 ft / 0 m 25.44153˚ 60.36515˚ 3 nm 345 nm 266° / 266° -

Altitude Profile

Advertisement - Login to hide

Weather


0- 5 10 15 20 25 30 35+ Temperature / ° C

Clouds and Precipitation
Forecast for 2017-12-16 18:00 UTC. Updated 16 minutes ago

Ground ~20,000 ft ~40,000 ft Winds

OIKK

Details ICAO OIKK (KER)
Name KERMAN
Region Iran
Timezone Asia/Tehran (UTC+3.5)
Stats Elevation 5,741 ft / 1,750 m (AMSL)
Location 30.268055° 56.955332°
Runways 2
Magnetic Variation 2.915° E

METAR

OIKK 161450Z 06004KT 9999 FEW040CB FEW045 BKN110 10/M03 Q1025 A3028

Decode

TAF

TAF OIKK 161110Z 1612/1718 12004MPS 7000 FEW035CB SCT040 BKN100 TEMPO 1612/1618 4000 SHRA FEW035CB SCT040 OVC100 BECMG 1620/1622 FEW035 SCT100 TEMPO 1708/1715 21007MPS

Decode

Departure Runways

ID Width Length Bearing (true) Bearing (mag) Surface Threshold Offset Overrun Length
05 148 ft / 45 m 6,658 ft / 2,029 m 53.18° 50.27° Asphalt 0 ft / 0 m 0 ft / 0 m
16 148 ft / 45 m 12,653 ft / 3,857 m 158.43° 155.52° Asphalt 0 ft / 0 m 344 ft / 105 m
23 148 ft / 45 m 6,658 ft / 2,029 m 233.19° 230.28° Asphalt 0 ft / 0 m 0 ft / 0 m
34 148 ft / 45 m 12,653 ft / 3,857 m 338.44° 335.53° Asphalt 0 ft / 0 m 488 ft / 149 m

OIZC

Details ICAO OIZC (ZBR)
Name CHAH BAHAR
Region Iran
Timezone Asia/Tehran (UTC+3.5)
Stats Elevation 43 ft / 13 m (AMSL)
Location 25.443349° 60.382115°
Runways 2
Magnetic Variation 1.619° E

METAR

Not found

TAF

TAF OIZC 161110Z 1612/1718 02004MPS 7000 FEW035 SCT100 TEMPO 1618/1703 4000 BR HZ

Decode

Destination Runways

ID Width Length Bearing (true) Bearing (mag) Surface Threshold Offset Overrun Length
09L 150 ft / 46 m 12,496 ft / 3,809 m 90.91° 89.29° Asphalt 0 ft / 0 m 1,181 ft / 360 m
09R 150 ft / 46 m 9,829 ft / 2,996 m 90.93° 89.31° Asphalt 0 ft / 0 m 1,181 ft / 360 m
27L 150 ft / 46 m 9,829 ft / 2,996 m 270.94° 269.32° Asphalt 0 ft / 0 m 1,181 ft / 360 m
27R 150 ft / 46 m 12,496 ft / 3,809 m 270.93° 269.31° Asphalt 0 ft / 0 m 1,181 ft / 360 m